createdAt,value
2019-05-23T00:01:12.138Z,14.30
2019-05-23T00:04:00.324Z,14.40
2019-05-23T00:06:29.607Z,14.30
2019-05-23T00:09:00.634Z,14.10
2019-05-23T00:11:40.580Z,14.10
2019-05-23T00:14:22.594Z,14.10
2019-05-23T00:16:53.924Z,14.20
2019-05-23T00:19:23.807Z,14.10
2019-05-23T00:21:53.672Z,14.10
2019-05-23T00:24:23.943Z,14.20
2019-05-23T00:26:53.275Z,14.20
2019-05-23T00:29:22.575Z,14.10
2019-05-23T00:32:01.063Z,14.10
2019-05-23T00:34:31.683Z,14.20
2019-05-23T00:37:02.432Z,14.20
2019-05-23T00:39:31.910Z,14.20
2019-05-23T00:42:01.378Z,14.20
2019-05-23T00:44:30.515Z,14.10
2019-05-23T00:47:00.143Z,14.00
2019-05-23T00:49:29.513Z,13.90
2019-05-23T00:51:58.814Z,14.00
2019-05-23T00:54:28.266Z,14.10
2019-05-23T00:56:58.621Z,14.10
2019-05-23T00:59:28.088Z,14.00
2019-05-23T01:01:57.810Z,14.10
2019-05-23T01:04:27.878Z,14.10
2019-05-23T01:06:57.962Z,14.00
2019-05-23T01:09:27.592Z,14.00
2019-05-23T01:11:57.674Z,14.10
2019-05-23T01:14:27.249Z,14.20
2019-05-23T01:16:57.315Z,14.20
2019-05-23T01:19:27.214Z,14.10
2019-05-23T01:21:59.388Z,14.10
2019-05-23T01:24:31.838Z,14.10
2019-05-23T01:27:02.439Z,14.10
2019-05-23T01:29:37.754Z,14.10
2019-05-23T01:32:13.367Z,14.00
2019-05-23T01:34:44.089Z,14.00
2019-05-23T01:37:13.740Z,13.90
2019-05-23T01:39:43.314Z,13.90
2019-05-23T01:42:13.298Z,13.90
2019-05-23T01:44:42.675Z,13.90
2019-05-23T01:47:11.918Z,13.90
2019-05-23T01:49:41.854Z,13.80
2019-05-23T01:52:11.728Z,13.70
2019-05-23T01:54:41.087Z,13.80
2019-05-23T01:57:10.582Z,13.70
2019-05-23T01:59:40.259Z,13.80
2019-05-23T02:02:11.179Z,13.80
2019-05-23T02:04:40.542Z,13.70
2019-05-23T02:07:10.411Z,13.70
2019-05-23T02:09:39.751Z,13.80
2019-05-23T02:12:11.805Z,13.70
2019-05-23T02:14:44.488Z,13.50
2019-05-23T02:17:13.628Z,13.60
2019-05-23T02:19:43.419Z,13.50
2019-05-23T02:22:13.177Z,13.50
2019-05-23T02:24:43.699Z,13.50
2019-05-23T02:27:12.944Z,13.50
2019-05-23T02:29:42.862Z,13.60
2019-05-23T02:32:12.091Z,13.60
2019-05-23T02:34:41.766Z,13.70
2019-05-23T02:37:19.970Z,13.60
2019-05-23T02:39:58.520Z,13.50
2019-05-23T02:42:41.575Z,13.50
2019-05-23T02:45:15.456Z,13.50
2019-05-23T02:47:49.206Z,13.50
2019-05-23T02:50:43.379Z,13.50
2019-05-23T02:53:16.072Z,13.50
2019-05-23T02:55:46.364Z,13.50
2019-05-23T02:58:25.787Z,13.50
2019-05-23T03:01:36.076Z,13.60
2019-05-23T03:04:10.630Z,13.70
2019-05-23T03:06:41.055Z,13.70
2019-05-23T03:09:12.520Z,13.50
2019-05-23T03:11:45.470Z,13.60
2019-05-23T03:14:15.392Z,13.50
2019-05-23T03:16:48.116Z,13.40
2019-05-23T03:19:28.763Z,13.50
2019-05-23T03:22:05.687Z,13.30
2019-05-23T03:24:35.314Z,13.40
2019-05-23T03:27:09.762Z,13.40
2019-05-23T03:29:39.496Z,13.30
2019-05-23T03:32:26.371Z,13.30
2019-05-23T03:35:13.893Z,13.30
2019-05-23T03:37:43.033Z,13.40
2019-05-23T03:40:12.706Z,13.30
2019-05-23T03:42:42.541Z,13.20
2019-05-23T03:45:14.935Z,13.10
2019-05-23T03:47:45.853Z,13.10
2019-05-23T03:50:16.526Z,13.10
2019-05-23T03:52:46.034Z,13.20
2019-05-23T03:55:16.105Z,13.20
2019-05-23T03:57:45.773Z,13.10
2019-05-23T04:00:17.185Z,13.20
2019-05-23T04:02:46.604Z,13.20
2019-05-23T04:05:16.281Z,13.20
2019-05-23T04:07:45.589Z,13.10
2019-05-23T04:10:14.861Z,13.10
2019-05-23T04:12:44.219Z,13.00
2019-05-23T04:15:13.514Z,13.00
2019-05-23T04:17:42.890Z,13.00
2019-05-23T04:20:12.449Z,12.80
2019-05-23T04:22:41.772Z,12.80
2019-05-23T04:25:11.580Z,12.90
2019-05-23T04:27:40.972Z,12.90
2019-05-23T04:30:11.660Z,12.90
2019-05-23T04:32:40.955Z,12.80
2019-05-23T04:35:11.286Z,12.90
2019-05-23T04:37:40.653Z,12.90
2019-05-23T04:40:11.109Z,12.90
2019-05-23T04:42:40.464Z,13.00
2019-05-23T04:45:09.851Z,13.00
2019-05-23T04:47:40.659Z,13.00
2019-05-23T04:50:12.811Z,13.00
2019-05-23T04:52:43.212Z,13.00
2019-05-23T04:55:15.311Z,12.90
2019-05-23T04:57:48.179Z,12.90
2019-05-23T05:00:19.383Z,12.90
2019-05-23T05:02:48.900Z,12.90
2019-05-23T05:05:18.966Z,12.90
2019-05-23T05:07:48.467Z,12.90
2019-05-23T05:10:20.490Z,12.80
2019-05-23T05:12:53.449Z,12.90
2019-05-23T05:15:23.162Z,12.90
2019-05-23T05:17:52.442Z,12.90
2019-05-23T05:20:21.644Z,13.00
2019-05-23T05:22:51.058Z,12.90
2019-05-23T05:25:20.641Z,13.00
2019-05-23T05:27:50.259Z,13.00
2019-05-23T05:30:19.670Z,13.00
2019-05-23T05:32:49.590Z,13.00
2019-05-23T05:35:18.918Z,13.00
2019-05-23T05:37:48.150Z,13.00
2019-05-23T05:40:17.519Z,13.10
2019-05-23T05:42:47.363Z,13.00
2019-05-23T05:45:16.795Z,13.10
2019-05-23T05:47:46.211Z,13.20
2019-05-23T05:50:15.975Z,13.30
2019-05-23T05:52:45.413Z,13.30
2019-05-23T05:55:14.823Z,13.20
2019-05-23T05:57:44.132Z,13.30
2019-05-23T06:00:42.355Z,13.30
2019-05-23T06:03:11.817Z,13.40
2019-05-23T06:06:00.074Z,13.30
2019-05-23T06:08:29.949Z,13.40
2019-05-23T06:10:59.012Z,13.40
2019-05-23T06:13:28.364Z,13.40
2019-05-23T06:15:57.699Z,13.40
2019-05-23T06:18:27.712Z,13.30
2019-05-23T06:20:56.883Z,13.30
2019-05-23T06:23:26.387Z,13.40
2019-05-23T06:25:55.551Z,13.50
2019-05-23T06:28:24.974Z,13.50
2019-05-23T06:30:54.275Z,13.50
2019-05-23T06:33:24.804Z,13.60
2019-05-23T06:35:54.072Z,13.60
2019-05-23T06:38:24.686Z,13.60
2019-05-23T06:40:54.625Z,13.60
2019-05-23T06:43:24.623Z,13.60
2019-05-23T06:45:53.794Z,13.60
2019-05-23T06:48:23.146Z,13.60
2019-05-23T06:50:52.295Z,13.60
2019-05-23T06:53:21.431Z,13.80
2019-05-23T06:55:50.582Z,13.90
2019-05-23T06:58:20.233Z,13.90
2019-05-23T07:00:49.829Z,14.00
2019-05-23T07:03:19.833Z,13.90
2019-05-23T07:05:49.130Z,13.90
2019-05-23T07:08:19.957Z,14.00
2019-05-23T07:10:49.110Z,14.00
2019-05-23T07:13:18.965Z,14.00
2019-05-23T07:15:48.215Z,14.00
2019-05-23T07:18:17.606Z,14.10
2019-05-23T07:20:46.790Z,14.10
2019-05-23T07:23:16.315Z,14.10
2019-05-23T07:25:45.475Z,14.10
2019-05-23T07:28:15.197Z,14.20
2019-05-23T07:30:44.794Z,14.10
2019-05-23T07:33:14.562Z,14.20
2019-05-23T07:35:43.713Z,14.20
2019-05-23T07:38:12.807Z,14.20
2019-05-23T07:40:42.354Z,14.30
2019-05-23T07:43:12.098Z,14.30
2019-05-23T07:45:57.806Z,14.30
2019-05-23T07:48:27.180Z,14.40
2019-05-23T07:50:56.242Z,14.40
2019-05-23T07:53:36.196Z,14.40
2019-05-23T07:56:06.979Z,14.40
2019-05-23T07:58:36.855Z,14.40
2019-05-23T08:01:08.188Z,14.40
2019-05-23T08:03:40.718Z,14.40
2019-05-23T08:06:10.331Z,14.40
2019-05-23T08:08:39.422Z,14.40
2019-05-23T08:11:08.526Z,14.50
2019-05-23T08:13:37.729Z,14.50
2019-05-23T08:16:07.083Z,14.60
2019-05-23T08:18:36.268Z,14.60
2019-05-23T08:21:05.667Z,14.60
2019-05-23T08:23:34.810Z,14.60
2019-05-23T08:26:04.239Z,14.60
2019-05-23T08:28:33.910Z,14.60
2019-05-23T08:31:07.126Z,14.60
2019-05-23T08:33:36.881Z,14.70
2019-05-23T08:36:06.666Z,14.60
2019-05-23T08:38:36.235Z,14.70
2019-05-23T08:41:06.790Z,14.80
2019-05-23T08:43:36.555Z,14.90
2019-05-23T08:46:06.756Z,14.90
2019-05-23T08:48:36.156Z,14.90
2019-05-23T08:51:05.562Z,15.10
2019-05-23T08:53:34.719Z,15.10
2019-05-23T08:56:18.444Z,15.20
2019-05-23T08:58:40.307Z,15.30
2019-05-23T09:01:10.204Z,15.30
2019-05-23T09:03:40.026Z,15.40
2019-05-23T09:06:11.128Z,15.40
2019-05-23T09:08:41.159Z,15.40
2019-05-23T09:11:11.152Z,15.50
2019-05-23T09:13:40.224Z,15.50
2019-05-23T09:16:09.681Z,15.60
2019-05-23T09:18:38.734Z,15.70
2019-05-23T09:21:08.210Z,15.60
2019-05-23T09:23:37.598Z,15.60
2019-05-23T09:26:06.708Z,15.60
2019-05-23T09:28:35.945Z,15.60
2019-05-23T09:31:05.687Z,15.70
2019-05-23T09:33:35.174Z,15.70
2019-05-23T09:36:04.823Z,15.80
2019-05-23T09:38:34.308Z,15.80
2019-05-23T09:41:03.493Z,15.80
2019-05-23T09:43:32.578Z,15.80
2019-05-23T09:46:01.677Z,15.80
2019-05-23T09:48:30.939Z,15.80
2019-05-23T09:51:00.012Z,15.80
2019-05-23T09:53:29.432Z,15.90
2019-05-23T09:55:58.524Z,15.90
2019-05-23T09:58:27.605Z,16.00
2019-05-23T10:00:57.278Z,16.10
2019-05-23T10:03:26.720Z,16.10
2019-05-23T10:05:56.045Z,16.00
2019-05-23T10:08:25.124Z,16.10
2019-05-23T10:10:54.472Z,16.20
2019-05-23T10:13:37.694Z,16.20
2019-05-23T10:16:06.155Z,16.10
2019-05-23T10:18:35.624Z,16.20
2019-05-23T10:21:05.443Z,16.30
2019-05-23T10:23:34.919Z,16.40
2019-05-23T10:26:05.085Z,16.40
2019-05-23T10:28:34.182Z,16.40
2019-05-23T10:31:04.642Z,16.40
2019-05-23T10:33:33.983Z,16.40
2019-05-23T10:36:03.396Z,16.50
2019-05-23T10:38:33.001Z,16.50
2019-05-23T10:41:02.225Z,16.60
2019-05-23T10:43:31.674Z,16.70
2019-05-23T10:46:01.011Z,16.70
2019-05-23T10:48:30.535Z,16.70
2019-05-23T10:51:00.194Z,16.80
2019-05-23T10:53:29.726Z,16.80
2019-05-23T10:55:59.075Z,16.80
2019-05-23T10:58:28.737Z,16.80
2019-05-23T11:00:57.835Z,16.90
2019-05-23T11:03:31.241Z,16.90
2019-05-23T11:06:15.072Z,17.10
2019-05-23T11:08:31.881Z,17.10
2019-05-23T11:11:01.181Z,17.20
2019-05-23T11:13:30.386Z,17.20
2019-05-23T11:15:59.753Z,17.20
2019-05-23T11:18:29.164Z,17.20
2019-05-23T11:20:58.274Z,17.20
2019-05-23T11:23:33.787Z,17.20
2019-05-23T11:26:03.539Z,17.20
2019-05-23T11:28:35.199Z,17.10
2019-05-23T11:31:05.861Z,17.20
2019-05-23T11:33:34.959Z,17.20
2019-05-23T11:36:04.308Z,17.10
2019-05-23T11:38:33.690Z,17.30
2019-05-23T11:41:03.063Z,17.40
2019-05-23T11:43:32.618Z,17.50
2019-05-23T11:46:19.468Z,17.60
2019-05-23T11:48:49.205Z,17.50
2019-05-23T11:51:19.008Z,17.60
2019-05-23T11:54:06.078Z,17.60
2019-05-23T11:56:19.492Z,17.70
2019-05-23T11:58:48.800Z,17.70
2019-05-23T12:01:28.872Z,17.80
2019-05-23T12:04:02.162Z,17.80
2019-05-23T12:06:53.551Z,17.80
2019-05-23T12:09:09.245Z,17.80
2019-05-23T12:11:42.441Z,17.80
2019-05-23T12:14:09.379Z,17.80
2019-05-23T12:16:38.863Z,17.80
2019-05-23T12:19:08.498Z,17.90
2019-05-23T12:21:37.957Z,18.00
2019-05-23T12:24:07.013Z,18.00
2019-05-23T12:26:36.315Z,18.00
2019-05-23T12:29:07.759Z,18.20
2019-05-23T12:31:37.058Z,18.20
2019-05-23T12:34:06.182Z,18.20
2019-05-23T12:36:35.534Z,18.10
2019-05-23T12:39:06.872Z,18.00
2019-05-23T12:41:36.205Z,18.00
2019-05-23T12:44:05.860Z,18.00
2019-05-23T12:46:34.951Z,17.90
2019-05-23T12:49:35.688Z,17.90
2019-05-23T12:52:06.531Z,17.90
2019-05-23T12:54:35.631Z,17.80
2019-05-23T12:57:05.840Z,17.90
2019-05-23T12:59:34.999Z,17.90
2019-05-23T13:02:05.698Z,18.00
2019-05-23T13:04:34.897Z,17.90
2019-05-23T13:07:04.389Z,17.90
2019-05-23T13:09:35.162Z,17.90
2019-05-23T13:12:04.302Z,18.00
2019-05-23T13:14:33.710Z,18.00
2019-05-23T13:17:02.927Z,18.00
2019-05-23T13:19:32.188Z,18.10
2019-05-23T13:22:01.575Z,18.10
2019-05-23T13:24:50.726Z,18.20
2019-05-23T13:27:01.666Z,18.30
2019-05-23T13:29:30.901Z,18.30
2019-05-23T13:32:00.077Z,18.40
2019-05-23T13:34:29.575Z,18.50
2019-05-23T13:36:58.883Z,18.50
2019-05-23T13:39:28.058Z,18.60
2019-05-23T13:41:57.210Z,18.60
2019-05-23T13:44:33.380Z,18.60
2019-05-23T13:46:57.412Z,18.60
2019-05-23T13:49:26.635Z,18.50
2019-05-23T13:51:55.904Z,18.50
2019-05-23T13:54:25.269Z,18.60
2019-05-23T13:56:54.938Z,18.70
2019-05-23T13:59:24.012Z,18.80
2019-05-23T14:01:53.755Z,18.90
2019-05-23T14:04:22.843Z,19.00
2019-05-23T14:06:52.176Z,18.90
2019-05-23T14:09:23.336Z,18.90
2019-05-23T14:12:19.541Z,18.90
2019-05-23T14:14:23.528Z,18.90
2019-05-23T14:17:10.420Z,18.90
2019-05-23T14:19:40.175Z,18.90
2019-05-23T14:22:12.982Z,18.90
2019-05-23T14:24:42.102Z,19.00
2019-05-23T14:27:27.465Z,19.00
2019-05-23T14:29:56.647Z,19.00
2019-05-23T14:32:50.659Z,19.10
2019-05-23T14:35:24.225Z,19.10
2019-05-23T14:37:54.990Z,19.00
2019-05-23T14:40:24.769Z,19.00
2019-05-23T14:43:11.569Z,19.00
2019-05-23T14:45:46.246Z,19.10
2019-05-23T14:48:23.698Z,19.00
2019-05-23T14:51:06.949Z,19.00
2019-05-23T14:53:37.681Z,18.90
2019-05-23T14:56:06.982Z,19.00
2019-05-23T14:58:36.731Z,19.10
2019-05-23T15:01:06.932Z,19.20
2019-05-23T15:03:36.156Z,19.30
2019-05-23T15:06:05.632Z,19.30
2019-05-23T15:08:50.596Z,19.30
2019-05-23T15:11:06.220Z,19.30
2019-05-23T15:13:35.709Z,19.20
2019-05-23T15:16:06.632Z,19.20
2019-05-23T15:18:35.755Z,19.30
2019-05-23T15:21:05.268Z,19.30
2019-05-23T15:23:34.359Z,19.30
2019-05-23T15:26:19.662Z,19.40
2019-05-23T15:28:34.512Z,19.40
2019-05-23T15:31:04.200Z,19.40
2019-05-23T15:33:34.807Z,19.40
2019-05-23T15:36:04.459Z,19.30
2019-05-23T15:38:34.003Z,19.30
2019-05-23T15:41:03.105Z,19.30
2019-05-23T15:43:32.559Z,19.30
2019-05-23T15:46:01.647Z,19.20
2019-05-23T15:48:31.294Z,19.30
2019-05-23T15:51:00.707Z,19.20
2019-05-23T15:53:47.240Z,19.30
2019-05-23T15:56:31.822Z,19.30
2019-05-23T15:59:20.033Z,19.30
2019-05-23T16:01:58.239Z,19.30
2019-05-23T16:04:27.746Z,19.40
2019-05-23T16:06:57.010Z,19.50
2019-05-23T16:09:30.280Z,19.40
2019-05-23T16:11:58.236Z,19.30
2019-05-23T16:14:27.788Z,19.20
2019-05-23T16:16:57.594Z,19.20
2019-05-23T16:19:27.172Z,19.20
2019-05-23T16:21:56.335Z,19.20
2019-05-23T16:24:26.170Z,19.30
2019-05-23T16:26:55.426Z,19.20
2019-05-23T16:29:24.799Z,19.20
2019-05-23T16:31:53.964Z,19.20
2019-05-23T16:34:23.808Z,19.20
2019-05-23T16:36:53.176Z,19.20
2019-05-23T16:39:26.311Z,19.20
2019-05-23T16:41:55.912Z,19.20
2019-05-23T16:44:25.004Z,19.20
2019-05-23T16:46:54.785Z,19.30
2019-05-23T16:49:23.835Z,19.40
2019-05-23T16:51:52.934Z,19.50
2019-05-23T16:54:28.955Z,19.60
2019-05-23T16:57:06.013Z,19.70
2019-05-23T16:59:40.070Z,19.70
2019-05-23T17:02:21.034Z,19.70
2019-05-23T17:05:10.544Z,19.70
2019-05-23T17:07:56.332Z,19.80
2019-05-23T17:10:48.886Z,19.90
2019-05-23T17:13:28.854Z,20.00
2019-05-23T17:16:15.612Z,19.90
2019-05-23T17:18:56.240Z,19.80
2019-05-23T17:21:42.893Z,19.70
2019-05-23T17:24:34.140Z,19.60
2019-05-23T17:27:22.587Z,19.60
2019-05-23T17:29:56.099Z,19.60
2019-05-23T17:32:29.941Z,19.50
2019-05-23T17:34:59.342Z,19.60
2019-05-23T17:37:29.047Z,19.60
2019-05-23T17:40:02.200Z,19.50
2019-05-23T17:42:31.412Z,19.50
2019-05-23T17:45:00.482Z,19.40
2019-05-23T17:47:30.291Z,19.40
2019-05-23T17:49:59.393Z,19.40
2019-05-23T17:52:28.566Z,19.40
2019-05-23T17:54:59.574Z,19.50
2019-05-23T17:57:29.596Z,19.50
2019-05-23T17:59:58.849Z,19.40
2019-05-23T18:02:28.493Z,19.50
2019-05-23T18:04:57.895Z,19.40
2019-05-23T18:07:27.826Z,19.40
2019-05-23T18:09:57.455Z,19.30
2019-05-23T18:12:26.707Z,19.30
2019-05-23T18:14:55.847Z,19.30
2019-05-23T18:17:25.486Z,19.30
2019-05-23T18:19:55.419Z,19.30
2019-05-23T18:22:25.178Z,19.30
2019-05-23T18:24:59.054Z,19.30
2019-05-23T18:27:26.104Z,19.20
2019-05-23T18:29:55.623Z,19.20
2019-05-23T18:32:27.153Z,19.20
2019-05-23T18:34:56.479Z,19.20
2019-05-23T18:37:25.555Z,19.20
2019-05-23T18:39:54.618Z,19.20
2019-05-23T18:42:23.989Z,19.20
2019-05-23T18:44:53.519Z,19.20
2019-05-23T18:47:34.069Z,19.10
2019-05-23T18:50:03.284Z,19.10
2019-05-23T18:52:33.456Z,19.00
2019-05-23T18:55:02.760Z,19.00
2019-05-23T18:57:32.365Z,18.90
2019-05-23T19:00:01.576Z,18.90
2019-05-23T19:02:30.818Z,18.90
2019-05-23T19:05:00.099Z,18.90
2019-05-23T19:07:29.238Z,18.80
2019-05-23T19:09:58.363Z,18.70
2019-05-23T19:12:27.664Z,18.70
2019-05-23T19:14:56.784Z,18.70
2019-05-23T19:17:25.877Z,18.70
2019-05-23T19:19:55.231Z,18.60
2019-05-23T19:22:24.338Z,18.60
2019-05-23T19:24:54.490Z,18.60
2019-05-23T19:27:23.900Z,18.50
2019-05-23T19:29:53.674Z,18.50
2019-05-23T19:32:23.141Z,18.50
2019-05-23T19:34:52.583Z,18.50
2019-05-23T19:37:21.983Z,18.40
2019-05-23T19:39:51.153Z,18.40
2019-05-23T19:42:20.926Z,18.40
2019-05-23T19:44:50.051Z,18.40
2019-05-23T19:47:19.650Z,18.30
2019-05-23T19:49:48.976Z,18.30
2019-05-23T19:52:18.149Z,18.30
2019-05-23T19:54:47.510Z,18.30
2019-05-23T19:57:20.043Z,18.30
2019-05-23T19:59:49.435Z,18.20
2019-05-23T20:02:28.203Z,18.20
2019-05-23T20:05:06.796Z,18.20
2019-05-23T20:07:35.990Z,18.20
2019-05-23T20:10:06.156Z,18.20
2019-05-23T20:12:38.074Z,18.20
2019-05-23T20:15:07.418Z,18.10
2019-05-23T20:17:36.589Z,18.00
2019-05-23T20:20:05.944Z,18.00
2019-05-23T20:22:35.044Z,18.00
2019-05-23T20:25:04.660Z,17.90
2019-05-23T20:27:34.056Z,17.90
2019-05-23T20:30:03.995Z,17.90
2019-05-23T20:32:33.249Z,17.90
2019-05-23T20:35:02.331Z,17.80
2019-05-23T20:37:35.153Z,17.80
2019-05-23T20:40:02.555Z,17.80
2019-05-23T20:42:31.744Z,17.80
2019-05-23T20:45:00.924Z,17.70
2019-05-23T20:47:30.756Z,17.70
2019-05-23T20:49:59.945Z,17.60
2019-05-23T20:52:29.131Z,17.60
2019-05-23T20:54:58.203Z,17.60
2019-05-23T20:57:27.279Z,17.60
2019-05-23T20:59:56.459Z,17.60
2019-05-23T21:02:25.853Z,17.50
2019-05-23T21:04:55.287Z,17.50
2019-05-23T21:07:24.393Z,17.50
2019-05-23T21:09:53.752Z,17.40
2019-05-23T21:12:29.980Z,17.40
2019-05-23T21:14:54.197Z,17.40
2019-05-23T21:17:24.159Z,17.40
2019-05-23T21:19:53.547Z,17.40
2019-05-23T21:22:22.724Z,17.40
2019-05-23T21:24:51.862Z,17.40
2019-05-23T21:27:21.343Z,17.30
2019-05-23T21:29:50.437Z,17.30
2019-05-23T21:32:19.638Z,17.20
2019-05-23T21:34:48.818Z,17.10
2019-05-23T21:37:18.162Z,17.10
2019-05-23T21:39:47.234Z,17.10
2019-05-23T21:42:16.331Z,17.10
2019-05-23T21:44:45.406Z,17.10
2019-05-23T21:47:14.825Z,17.10
2019-05-23T21:49:43.936Z,17.10
2019-05-23T21:52:13.383Z,17.10
2019-05-23T21:54:42.440Z,17.10
2019-05-23T21:57:11.597Z,17.10
2019-05-23T21:59:40.709Z,17.10
2019-05-23T22:02:24.298Z,17.00
2019-05-23T22:05:15.258Z,17.00
2019-05-23T22:07:45.379Z,17.00
2019-05-23T22:10:14.521Z,16.90
2019-05-23T22:12:44.166Z,16.90
2019-05-23T22:15:17.138Z,16.90
2019-05-23T22:17:46.529Z,16.80
2019-05-23T22:20:15.603Z,16.80
2019-05-23T22:22:44.722Z,16.80
2019-05-23T22:25:17.507Z,16.80
2019-05-23T22:27:47.199Z,16.80
2019-05-23T22:30:16.439Z,16.80
2019-05-23T22:32:46.098Z,16.70
2019-05-23T22:35:18.810Z,16.60
2019-05-23T22:37:47.890Z,16.50
2019-05-23T22:40:17.134Z,16.50
2019-05-23T22:42:46.308Z,16.50
2019-05-23T22:45:17.471Z,16.50
2019-05-23T22:47:46.538Z,16.30
2019-05-23T22:50:15.718Z,16.30
2019-05-23T22:52:44.874Z,16.30
2019-05-23T22:55:14.228Z,16.30
2019-05-23T22:57:43.522Z,16.40
2019-05-23T23:00:14.994Z,16.40
2019-05-23T23:02:46.072Z,16.30
2019-05-23T23:05:15.355Z,16.30
2019-05-23T23:07:44.807Z,16.30
2019-05-23T23:10:14.340Z,16.20
2019-05-23T23:12:43.418Z,16.30
2019-05-23T23:15:13.047Z,16.30
2019-05-23T23:17:42.131Z,16.30
2019-05-23T23:20:11.566Z,16.30
2019-05-23T23:22:40.676Z,16.30
2019-05-23T23:25:09.755Z,16.30
2019-05-23T23:27:38.811Z,16.20
2019-05-23T23:30:08.809Z,16.20
2019-05-23T23:32:37.908Z,16.20
2019-05-23T23:35:07.658Z,16.20
2019-05-23T23:37:37.017Z,16.20
2019-05-23T23:40:06.454Z,16.10
2019-05-23T23:42:35.831Z,16.10
2019-05-23T23:45:22.827Z,16.10
2019-05-23T23:48:09.571Z,16.10
2019-05-23T23:50:56.530Z,15.90
2019-05-23T23:53:43.281Z,15.90
2019-05-23T23:56:30.343Z,15.90
2019-05-23T23:58:58.565Z,16.00
